Time;durP1;ratioP1;P1;durP2;ratioP2;P2;SDS_P1;SDS_P2;PMS_P1;PMS_P2;Temp;Humidity;BMP_temperature;BMP_pressure;BME280_temperature;BME280_humidity;BME280_pressure;Samples;Min_cycle;Max_cycle;Signal;HPM_P1;HPM_P2
2023/12/27 07:54:00;;;;;;;;;10.25;9.50;;;;;;;;5464811;22;46090;-75
2023/12/27 07:56:25;;;;;;;;;7.00;5.00;;;;;;;;5041614;28;45397;-75
2023/12/27 07:58:50;;;;;;;;;8.25;6.00;;;;;;;;5035482;28;45535;-75
2023/12/27 08:01:15;;;;;;;;;11.25;8.00;;;;;;;;5040611;28;45356;-74
2023/12/27 08:03:40;;;;;;;;;4.50;4.00;;;;;;;;5035861;28;45212;-75
2023/12/27 08:06:06;;;;;;;;;7.50;5.50;;;;;;;;5040921;28;45310;-75
2023/12/27 08:08:32;;;;;;;;;5.25;5.25;;;;;;;;5033777;28;45543;-75
2023/12/27 08:10:57;;;;;;;;;7.00;7.00;;;;;;;;5042024;28;45235;-76
2023/12/27 08:13:22;;;;;;;;;10.75;6.00;;;;;;;;5033172;28;46464;-75
2023/12/27 08:15:49;;;;;;;;;6.00;5.50;;;;;;;;5054162;28;45202;-75
2023/12/27 08:18:15;;;;;;;;;9.50;6.50;;;;;;;;5044873;28;45210;-76
2023/12/27 08:20:40;;;;;;;;;6.00;6.00;;;;;;;;5036043;28;45161;-75
2023/12/27 08:23:06;;;;;;;;;11.25;6.50;;;;;;;;5033513;28;46888;-75
2023/12/27 08:25:33;;;;;;;;;7.25;7.00;;;;;;;;5044134;28;45313;-74
2023/12/27 08:27:59;;;;;;;;;12.75;8.00;;;;;;;;5035217;28;44760;-74
2023/12/27 08:30:24;;;;;;;;;7.50;6.25;;;;;;;;5042897;28;45370;-75
2023/12/27 08:32:50;;;;;;;;;9.00;5.50;;;;;;;;5036712;28;45440;-75
2023/12/27 08:35:15;;;;;;;;;6.25;5.75;;;;;;;;5045053;28;45402;-76
2023/12/27 08:37:40;;;;;;;;;7.25;6.00;;;;;;;;5048948;28;45334;-75
2023/12/27 08:40:06;;;;;;;;;10.00;5.00;;;;;;;;5051113;28;46258;-80
2023/12/27 08:42:31;;;;;;;;;6.50;6.00;;;;;;;;5044019;28;45499;-76
2023/12/27 08:44:57;;;;;;;;;6.25;5.25;;;;;;;;5041223;28;45363;-76
2023/12/27 08:47:22;;;;;;;;;6.00;5.00;;;;;;;;5044595;28;45220;-77
2023/12/27 08:49:47;;;;;;;;;7.25;4.25;;;;;;;;5041830;28;45998;-76
2023/12/27 08:52:12;;;;;;;;;6.75;6.00;;;;;;;;5046247;28;46878;-76
2023/12/27 08:54:37;;;;;;;;;4.00;4.00;;;;;;;;5040220;28;45287;-76
2023/12/27 08:57:03;;;;;;;;;5.00;5.00;;;;;;;;5046639;28;45216;-77
2023/12/27 08:59:28;;;;;;;;;4.50;3.00;;;;;;;;5040550;28;45300;-76
2023/12/27 09:01:53;;;;;;;;;6.00;6.00;;;;;;;;5042965;28;45209;-76
2023/12/27 09:04:20;;;;;;;;;4.50;4.50;;;;;;;;5039589;28;45274;-76
2023/12/27 09:06:45;;;;;;;;;7.25;5.00;;;;;;;;5044299;28;45602;-76
2023/12/27 09:09:11;;;;;;;;;6.00;5.00;;;;;;;;5041191;28;45330;-76
2023/12/27 09:11:36;;;;;;;;;6.25;5.00;;;;;;;;5045519;28;45334;-76
2023/12/27 09:14:02;;;;;;;;;5.75;5.75;;;;;;;;5040635;28;45618;-76
2023/12/27 09:16:27;;;;;;;;;5.25;5.25;;;;;;;;5061836;28;45276;-76
2023/12/27 09:18:52;;;;;;;;;5.75;5.75;;;;;;;;5042070;28;45499;-77
2023/12/27 09:21:17;;;;;;;;;6.75;6.75;;;;;;;;5045807;28;45418;-76
2023/12/27 09:23:43;;;;;;;;;5.00;4.25;;;;;;;;5035842;28;45336;-77
2023/12/27 09:26:12;;;;;;;;;10.50;5.75;;;;;;;;5045488;28;45252;-76
2023/12/27 09:28:37;;;;;;;;;15.50;14.50;;;;;;;;5036117;28;46193;-76
2023/12/27 09:31:02;;;;;;;;;10.75;5.00;;;;;;;;5041775;28;45351;-76
2023/12/27 09:33:28;;;;;;;;;33.25;32.25;;;;;;;;5040279;28;45288;-76
2023/12/27 09:35:54;;;;;;;;;21.50;17.75;;;;;;;;5043753;28;45366;-76
2023/12/27 09:38:19;;;;;;;;;14.25;12.50;;;;;;;;5041026;28;45714;-73
2023/12/27 09:40:44;;;;;;;;;18.75;15.75;;;;;;;;5043034;28;45400;-75
2023/12/27 09:43:11;;;;;;;;;16.50;13.50;;;;;;;;5044009;28;45173;-76
2023/12/27 09:45:36;;;;;;;;;9.50;7.25;;;;;;;;5037615;28;45358;-82
2023/12/27 09:48:02;;;;;;;;;19.75;16.25;;;;;;;;5043856;28;45517;-76
2023/12/27 09:50:28;;;;;;;;;11.25;11.25;;;;;;;;5033721;28;45450;-80
2023/12/27 09:52:53;;;;;;;;;6.50;5.00;;;;;;;;5046779;28;45324;-76
2023/12/27 09:55:19;;;;;;;;;14.50;12.75;;;;;;;;5042415;28;45272;-76
2023/12/27 09:57:45;;;;;;;;;18.50;14.75;;;;;;;;5042385;28;45439;-77
2023/12/27 10:00:12;;;;;;;;;6.50;6.50;;;;;;;;5038412;28;45565;-81
2023/12/27 10:02:40;;;;;;;;;8.75;7.00;;;;;;;;5039245;28;45153;-79
2023/12/27 10:05:14;;;;;;;;;7.25;5.25;;;;;;;;5038528;28;45308;-81
2023/12/27 10:07:40;;;;;;;;;10.00;8.25;;;;;;;;5037311;28;45467;-82
2023/12/27 10:10:07;;;;;;;;;8.50;7.25;;;;;;;;5038798;28;46614;-82
2023/12/27 10:12:32;;;;;;;;;10.25;8.25;;;;;;;;5037861;28;45373;-81
2023/12/27 10:14:58;;;;;;;;;8.25;8.25;;;;;;;;5036261;28;45423;-81
2023/12/27 10:17:23;;;;;;;;;9.25;9.25;;;;;;;;5040912;28;45420;-82
2023/12/27 10:19:49;;;;;;;;;10.75;8.00;;;;;;;;5048825;28;46661;-81
2023/12/27 10:22:14;;;;;;;;;12.50;12.50;;;;;;;;5039563;28;45437;-82
2023/12/27 10:24:39;;;;;;;;;7.00;6.25;;;;;;;;5034616;28;45580;-81
2023/12/27 10:27:05;;;;;;;;;14.00;10.50;;;;;;;;5042019;28;44920;-82
2023/12/27 10:29:34;;;;;;;;;16.25;15.25;;;;;;;;5036809;28;45319;-81
2023/12/27 10:31:59;;;;;;;;;13.50;12.75;;;;;;;;5058814;28;45271;-81
2023/12/27 10:34:25;;;;;;;;;11.25;8.25;;;;;;;;5036355;28;45252;-81
2023/12/27 10:36:50;;;;;;;;;9.00;6.00;;;;;;;;5040676;28;45110;-80
2023/12/27 10:39:18;;;;;;;;;8.25;7.50;;;;;;;;5043182;28;45141;-81
2023/12/27 10:41:43;;;;;;;;;8.75;7.50;;;;;;;;5040997;28;45521;-82
2023/12/27 10:44:09;;;;;;;;;8.33;7.33;;;;;;;;5037215;28;45296;-81
2023/12/27 10:46:36;;;;;;;;;5.33;5.33;;;;;;;;5038686;28;45536;-81
2023/12/27 10:49:02;;;;;;;;;4.00;4.00;;;;;;;;5033894;28;47055;-80
2023/12/27 10:51:28;;;;;;;;;7.67;7.00;;;;;;;;5035741;28;45247;-81
2023/12/27 10:53:57;;;;;;;;;6.33;4.67;;;;;;;;5036842;28;45466;-81
2023/12/27 10:56:23;;;;;;;;;3.00;3.00;;;;;;;;5040714;28;45265;-84
2023/12/27 10:58:49;;;;;;;;;5.67;5.67;;;;;;;;5050315;28;45424;-86
2023/12/27 11:01:15;;;;;;;;;6.00;5.00;;;;;;;;5052338;28;45445;-86
2023/12/27 11:03:41;;;;;;;;;8.00;7.00;;;;;;;;5037930;28;45335;-81
2023/12/27 11:06:06;;;;;;;;;5.67;4.33;;;;;;;;5052765;28;46034;-80
2023/12/27 11:08:32;;;;;;;;;4.00;4.00;;;;;;;;5037154;28;45601;-79
2023/12/27 11:10:59;;;;;;;;;4.00;4.00;;;;;;;;5042745;28;45569;-79
2023/12/27 11:13:27;;;;;;;;;5.00;5.00;;;;;;;;5036079;28;45251;-80
2023/12/27 11:15:55;;;;;;;;;6.67;6.33;;;;;;;;5040961;28;45543;-85
2023/12/27 11:18:21;;;;;;;;;5.67;4.67;;;;;;;;5039439;28;45653;-84
2023/12/27 11:20:49;;;;;;;;;4.67;4.67;;;;;;;;5041227;28;45244;-87
2023/12/27 11:23:14;;;;;;;;;6.00;4.00;;;;;;;;5035071;28;45288;-85
2023/12/27 11:25:40;;;;;;;;;6.00;4.67;;;;;;;;5048149;28;45377;-84
2023/12/27 11:28:05;;;;;;;;;4.67;4.67;;;;;;;;5041882;28;45435;-83
2023/12/27 11:30:32;;;;;;;;;8.00;6.00;;;;;;;;5045433;28;45299;-83
2023/12/27 11:32:57;;;;;;;;;6.00;5.33;;;;;;;;5041569;28;45339;-77
2023/12/27 11:35:29;;;;;;;;;7.00;5.67;;;;;;;;5044218;28;46330;-77
2023/12/27 11:38:12;;;;;;;;;5.67;4.00;;;;;;;;5039361;28;45492;-79
2023/12/27 11:40:39;;;;;;;;;3.00;3.00;;;;;;;;5050355;28;44772;-77
2023/12/27 11:43:04;;;;;;;;;4.33;4.33;;;;;;;;5038960;28;45256;-83
2023/12/27 11:45:48;;;;;;;;;4.00;4.00;;;;;;;;5042673;28;46221;-81
2023/12/27 11:48:13;;;;;;;;;4.00;4.00;;;;;;;;5040929;28;45621;-83
2023/12/27 11:50:38;;;;;;;;;6.67;5.00;;;;;;;;5043883;28;45426;-83
2023/12/27 11:53:04;;;;;;;;;8.67;6.00;;;;;;;;5040402;28;45295;-77
2023/12/27 11:55:31;;;;;;;;;7.00;4.00;;;;;;;;5040910;28;45568;-77
2023/12/27 11:57:57;;;;;;;;;5.33;5.33;;;;;;;;5039243;28;47130;-79
2023/12/27 12:00:24;;;;;;;;;6.00;3.33;;;;;;;;5044539;28;45292;-79
2023/12/27 12:02:54;;;;;;;;;3.67;3.00;;;;;;;;5041461;28;45382;-76
2023/12/27 12:05:29;;;;;;;;;6.33;5.67;;;;;;;;5032779;28;45661;-79
2023/12/27 12:07:59;;;;;;;;;7.67;6.33;;;;;;;;5039945;28;45418;-77
2023/12/27 12:10:26;;;;;;;;;5.00;3.00;;;;;;;;5035265;28;45378;-79
2023/12/27 12:12:52;;;;;;;;;4.67;4.67;;;;;;;;5039781;28;45398;-79
2023/12/27 12:15:19;;;;;;;;;7.33;3.67;;;;;;;;5040451;28;46021;-79
2023/12/27 12:17:44;;;;;;;;;6.00;5.00;;;;;;;;5040543;28;45421;-78
2023/12/27 12:20:12;;;;;;;;;0.00;0.00;;;;;;;;5037450;28;45210;-79
2023/12/27 12:22:37;;;;;;;;;5.67;5.00;;;;;;;;5040675;28;45417;-79
2023/12/27 12:25:07;;;;;;;;;4.00;3.00;;;;;;;;5045935;28;45921;-79
2023/12/27 12:27:33;;;;;;;;;3.67;3.67;;;;;;;;5041719;28;45169;-80
2023/12/27 12:29:58;;;;;;;;;5.00;2.00;;;;;;;;5037094;28;45239;-78
2023/12/27 12:32:25;;;;;;;;;5.00;4.00;;;;;;;;5042678;28;45425;-79
2023/12/27 12:34:50;;;;;;;;;4.00;4.00;;;;;;;;5033551;28;45211;-79
2023/12/27 12:37:15;;;;;;;;;5.00;4.00;;;;;;;;5042038;28;45478;-80
2023/12/27 12:39:41;;;;;;;;;4.33;2.67;;;;;;;;5031458;28;45342;-79
2023/12/27 12:42:07;;;;;;;;;4.67;3.33;;;;;;;;5056207;28;45501;-79
2023/12/27 12:44:32;;;;;;;;;5.00;4.00;;;;;;;;5038361;28;45768;-78
2023/12/27 12:46:57;;;;;;;;;4.67;2.67;;;;;;;;5045981;28;45397;-80
2023/12/27 12:49:23;;;;;;;;;3.33;2.33;;;;;;;;5037525;28;45566;-79
2023/12/27 12:51:52;;;;;;;;;2.33;2.33;;;;;;;;5047909;28;45290;-79
2023/12/27 12:54:18;;;;;;;;;6.33;4.00;;;;;;;;5038407;28;46010;-79
2023/12/27 12:56:43;;;;;;;;;5.67;3.00;;;;;;;;5038106;28;46313;-79
2023/12/27 12:59:08;;;;;;;;;4.00;3.00;;;;;;;;5037904;28;45999;-79
2023/12/27 13:01:33;;;;;;;;;2.00;2.00;;;;;;;;5041991;28;45259;-80
2023/12/27 13:03:58;;;;;;;;;3.00;3.00;;;;;;;;5037898;28;45532;-77
2023/12/27 13:06:24;;;;;;;;;2.00;2.00;;;;;;;;5040660;28;46665;-79
2023/12/27 13:08:50;;;;;;;;;3.33;2.00;;;;;;;;5032232;28;45251;-79
2023/12/27 13:11:17;;;;;;;;;1.33;1.33;;;;;;;;5039218;28;45244;-79
2023/12/27 13:13:42;;;;;;;;;2.00;2.00;;;;;;;;5035037;28;45479;-79
2023/12/27 13:16:08;;;;;;;;;2.00;2.00;;;;;;;;5038569;28;45448;-77
2023/12/27 13:18:33;;;;;;;;;4.33;2.00;;;;;;;;5033186;28;45431;-78
2023/12/27 13:20:58;;;;;;;;;3.00;3.00;;;;;;;;5041324;28;45631;-77
2023/12/27 13:23:23;;;;;;;;;3.33;2.00;;;;;;;;5035462;28;45302;-78
2023/12/27 13:25:49;;;;;;;;;2.00;2.00;;;;;;;;5038022;28;45306;-79
2023/12/27 13:28:14;;;;;;;;;2.33;2.00;;;;;;;;5034837;28;45414;-79
2023/12/27 13:30:39;;;;;;;;;2.00;2.00;;;;;;;;5040659;28;45225;-78
2023/12/27 13:33:05;;;;;;;;;0.00;0.00;;;;;;;;5034543;28;45500;-79
2023/12/27 13:35:31;;;;;;;;;3.00;2.00;;;;;;;;5045799;28;45400;-78
2023/12/27 13:37:56;;;;;;;;;2.00;2.00;;;;;;;;5033410;28;45268;-77
2023/12/27 13:40:23;;;;;;;;;2.00;2.00;;;;;;;;5037337;28;45429;-78
2023/12/27 13:42:48;;;;;;;;;4.00;2.00;;;;;;;;5041173;28;45540;-78
2023/12/27 13:45:14;;;;;;;;;3.00;1.00;;;;;;;;5038700;28;46291;-80
2023/12/27 13:47:39;;;;;;;;;2.00;2.00;;;;;;;;5064530;28;45470;-79
2023/12/27 13:50:04;;;;;;;;;1.33;1.33;;;;;;;;5045238;28;45414;-79
2023/12/27 13:52:30;;;;;;;;;2.33;1.33;;;;;;;;5064475;28;45235;-79
2023/12/27 13:54:56;;;;;;;;;2.00;1.00;;;;;;;;5039865;28;45539;-77
2023/12/27 13:57:21;;;;;;;;;2.33;1.33;;;;;;;;5036832;28;45450;-80
2023/12/27 13:59:46;;;;;;;;;2.00;2.00;;;;;;;;5034606;28;45662;-77
2023/12/27 14:02:12;;;;;;;;;2.00;1.33;;;;;;;;5041118;28;45785;-79
2023/12/27 14:04:37;;;;;;;;;1.33;1.33;;;;;;;;5033631;28;45967;-77
2023/12/27 14:07:03;;;;;;;;;1.33;1.33;;;;;;;;5047580;28;44693;-76
2023/12/27 14:09:28;;;;;;;;;2.67;2.67;;;;;;;;5037679;28;45422;-76
2023/12/27 14:11:54;;;;;;;;;1.00;1.00;;;;;;;;5041122;28;45323;-85
2023/12/27 14:14:19;;;;;;;;;2.00;2.00;;;;;;;;5042858;28;46191;-91
2023/12/27 14:16:46;;;;;;;;;1.33;1.33;;;;;;;;5042248;28;45338;-86
2023/12/27 14:19:13;;;;;;;;;1.00;1.00;;;;;;;;5040744;28;45359;-87
2023/12/27 14:21:38;;;;;;;;;2.00;2.00;;;;;;;;5041453;28;45503;-85
2023/12/27 14:24:03;;;;;;;;;1.00;1.00;;;;;;;;5043115;28;45436;-85
2023/12/27 14:26:29;;;;;;;;;2.33;2.00;;;;;;;;5046500;28;45421;-85
2023/12/27 14:28:55;;;;;;;;;3.00;2.67;;;;;;;;5044957;28;45281;-84
2023/12/27 14:31:20;;;;;;;;;2.00;2.00;;;;;;;;5069402;28;45932;-83
2023/12/27 14:33:45;;;;;;;;;1.00;1.00;;;;;;;;5049529;28;45388;-86
2023/12/27 14:36:11;;;;;;;;;2.67;2.00;;;;;;;;5046794;28;45361;-86
2023/12/27 14:38:38;;;;;;;;;1.67;1.67;;;;;;;;5043844;28;46219;-85
2023/12/27 14:41:03;;;;;;;;;1.33;1.33;;;;;;;;5048952;28;45581;-86
2023/12/27 14:43:29;;;;;;;;;2.00;2.00;;;;;;;;5039282;28;47312;-81
2023/12/27 14:45:54;;;;;;;;;2.67;2.00;;;;;;;;5047739;28;45426;-79
2023/12/27 14:48:19;;;;;;;;;2.00;2.00;;;;;;;;5047924;28;45374;-76
2023/12/27 14:50:44;;;;;;;;;2.00;2.00;;;;;;;;5045794;28;45611;-77
2023/12/27 14:53:09;;;;;;;;;4.33;3.00;;;;;;;;5045319;28;45449;-80
2023/12/27 14:55:34;;;;;;;;;5.00;2.00;;;;;;;;5038534;28;45286;-77
2023/12/27 14:58:00;;;;;;;;;1.00;1.00;;;;;;;;5039033;28;45398;-80
2023/12/27 15:00:25;;;;;;;;;2.00;2.00;;;;;;;;5039672;28;46215;-79
2023/12/27 15:02:50;;;;;;;;;1.00;1.00;;;;;;;;5042849;28;46119;-79
2023/12/27 15:05:15;;;;;;;;;1.67;1.67;;;;;;;;5039169;28;45476;-79
2023/12/27 15:07:42;;;;;;;;;3.67;3.00;;;;;;;;5038261;28;45314;-76
2023/12/27 15:10:08;;;;;;;;;1.00;1.00;;;;;;;;5036041;28;45458;-77
2023/12/27 15:12:33;;;;;;;;;3.00;2.00;;;;;;;;5036231;28;45716;-75
2023/12/27 15:14:59;;;;;;;;;2.00;1.33;;;;;;;;5035100;28;45385;-78
2023/12/27 15:17:24;;;;;;;;;2.00;2.00;;;;;;;;5046568;28;45266;-78
2023/12/27 15:19:50;;;;;;;;;1.67;1.67;;;;;;;;5053468;28;45402;-78
2023/12/27 15:22:15;;;;;;;;;0.00;0.00;;;;;;;;5041265;28;45299;-78
2023/12/27 15:24:40;;;;;;;;;1.00;1.00;;;;;;;;5042069;28;45259;-78
2023/12/27 15:27:09;;;;;;;;;2.67;1.00;;;;;;;;5044877;28;45225;-77
2023/12/27 15:29:38;;;;;;;;;5.00;5.00;;;;;;;;5035575;28;45308;-79
2023/12/27 15:32:03;;;;;;;;;2.00;2.00;;;;;;;;5043030;28;45688;-79
2023/12/27 15:34:29;;;;;;;;;2.00;2.00;;;;;;;;5035205;28;44921;-80
2023/12/27 15:36:54;;;;;;;;;3.00;3.00;;;;;;;;5043149;28;45429;-80
2023/12/27 15:39:19;;;;;;;;;5.00;2.00;;;;;;;;5032071;28;46124;-79
2023/12/27 15:41:44;;;;;;;;;3.00;2.00;;;;;;;;5047247;28;46727;-78
2023/12/27 15:44:09;;;;;;;;;2.00;2.00;;;;;;;;5039547;28;44828;-79
2023/12/27 15:46:34;;;;;;;;;2.00;2.00;;;;;;;;5044421;28;45513;-79
2023/12/27 15:49:00;;;;;;;;;3.00;3.00;;;;;;;;5038527;28;45447;-80
2023/12/27 15:51:32;;;;;;;;;2.67;2.67;;;;;;;;5041929;28;47269;-78
2023/12/27 15:53:58;;;;;;;;;3.00;2.00;;;;;;;;5034367;28;45492;-78
2023/12/27 15:56:27;;;;;;;;;5.00;3.00;;;;;;;;5039895;28;45427;-78
2023/12/27 15:58:55;;;;;;;;;3.00;3.00;;;;;;;;5033204;28;45442;-78
2023/12/27 16:01:20;;;;;;;;;3.00;3.00;;;;;;;;5037654;28;48065;-77
2023/12/27 16:03:47;;;;;;;;;3.67;3.00;;;;;;;;5034366;28;45409;-77
2023/12/27 16:06:12;;;;;;;;;5.25;3.50;;;;;;;;5035617;28;45457;-75
2023/12/27 16:08:44;;;;;;;;;3.00;2.00;;;;;;;;5033751;28;45264;-77
2023/12/27 16:11:09;;;;;;;;;3.00;3.00;;;;;;;;5040858;28;45353;-77
2023/12/27 16:13:34;;;;;;;;;3.00;3.00;;;;;;;;5031713;28;45233;-77
2023/12/27 16:16:03;;;;;;;;;1.00;1.00;;;;;;;;5036574;28;45312;-77
2023/12/27 16:18:28;;;;;;;;;2.00;2.00;;;;;;;;5031689;28;45815;-77
2023/12/27 16:20:53;;;;;;;;;3.75;3.75;;;;;;;;5039201;28;45351;-77
2023/12/27 16:23:18;;;;;;;;;7.25;3.00;;;;;;;;5033093;28;45448;-76
2023/12/27 16:25:44;;;;;;;;;3.00;3.00;;;;;;;;5031665;28;45519;-79
2023/12/27 16:28:09;;;;;;;;;3.00;3.00;;;;;;;;5034747;28;45247;-77
2023/12/27 16:30:34;;;;;;;;;1.00;1.00;;;;;;;;5032452;28;45364;-75
2023/12/27 16:32:59;;;;;;;;;5.25;5.00;;;;;;;;5039398;28;45335;-77
2023/12/27 16:35:25;;;;;;;;;7.00;3.00;;;;;;;;5047909;28;45616;-79
2023/12/27 16:37:50;;;;;;;;;1.00;0.00;;;;;;;;5050886;28;45394;-80
2023/12/27 16:40:15;;;;;;;;;4.00;4.00;;;;;;;;5038657;28;46492;-78
2023/12/27 16:42:46;;;;;;;;;4.75;4.00;;;;;;;;5055185;28;45525;-74
2023/12/27 16:45:11;;;;;;;;;5.50;5.50;;;;;;;;5042106;28;45461;-77
2023/12/27 16:47:36;;;;;;;;;5.00;5.00;;;;;;;;5039604;28;45571;-79
2023/12/27 16:50:02;;;;;;;;;3.25;3.25;;;;;;;;5048999;28;45429;-78
2023/12/27 16:52:27;;;;;;;;;5.50;5.50;;;;;;;;5048331;28;45235;-78
2023/12/27 16:54:53;;;;;;;;;4.00;4.00;;;;;;;;5040681;28;45411;-77
2023/12/27 16:57:18;;;;;;;;;5.00;3.75;;;;;;;;5038207;28;45517;-76
2023/12/27 16:59:43;;;;;;;;;4.00;3.00;;;;;;;;5032410;28;46252;-77
2023/12/27 17:02:08;;;;;;;;;4.00;3.00;;;;;;;;5039182;28;45575;-76
2023/12/27 17:04:33;;;;;;;;;3.75;3.75;;;;;;;;5037747;28;45668;-81
2023/12/27 17:06:59;;;;;;;;;4.50;4.50;;;;;;;;5042921;28;44802;-75
2023/12/27 17:09:24;;;;;;;;;5.75;4.00;;;;;;;;5041261;28;47050;-76
2023/12/27 17:11:49;;;;;;;;;5.75;3.00;;;;;;;;5046303;28;45290;-75
2023/12/27 17:14:14;;;;;;;;;6.00;3.75;;;;;;;;5037957;28;45417;-77
2023/12/27 17:16:40;;;;;;;;;6.00;5.00;;;;;;;;5047632;28;45310;-79
2023/12/27 17:19:05;;;;;;;;;4.50;4.00;;;;;;;;5036349;28;45554;-78
2023/12/27 17:21:30;;;;;;;;;4.25;4.00;;;;;;;;5049865;28;45289;-76
2023/12/27 17:23:55;;;;;;;;;9.25;5.00;;;;;;;;5035919;28;45688;-76
2023/12/27 17:26:22;;;;;;;;;4.00;4.00;;;;;;;;5050994;28;45460;-76
2023/12/27 17:28:47;;;;;;;;;4.25;4.25;;;;;;;;5039734;28;46599;-76
2023/12/27 17:31:12;;;;;;;;;7.25;4.00;;;;;;;;5052235;28;45342;-76
2023/12/27 17:33:37;;;;;;;;;5.25;4.75;;;;;;;;5057113;28;45536;-76
2023/12/27 17:36:03;;;;;;;;;4.50;3.50;;;;;;;;5053086;28;45282;-76
2023/12/27 17:38:28;;;;;;;;;5.00;3.75;;;;;;;;5037423;28;47082;-75
2023/12/27 17:40:53;;;;;;;;;3.00;3.00;;;;;;;;5050377;28;45282;-75
2023/12/27 17:43:18;;;;;;;;;7.00;4.25;;;;;;;;5045675;28;45401;-74
2023/12/27 17:45:44;;;;;;;;;6.00;4.00;;;;;;;;5061454;28;45584;-74
2023/12/27 17:48:09;;;;;;;;;4.00;4.00;;;;;;;;5046745;28;45406;-74
2023/12/27 17:50:37;;;;;;;;;5.75;4.00;;;;;;;;5047459;28;45418;-75
2023/12/27 17:53:03;;;;;;;;;5.00;5.00;;;;;;;;5048070;28;45274;-73
2023/12/27 17:55:28;;;;;;;;;4.00;4.00;;;;;;;;5044578;28;45559;-76
2023/12/27 17:57:56;;;;;;;;;4.75;3.00;;;;;;;;5045827;28;46749;-76
2023/12/27 18:00:21;;;;;;;;;6.00;5.00;;;;;;;;5045034;28;45651;-74
2023/12/27 18:02:47;;;;;;;;;3.00;3.00;;;;;;;;5049096;28;45255;-74
2023/12/27 18:05:12;;;;;;;;;4.00;3.50;;;;;;;;5037643;28;46339;-75
2023/12/27 18:07:37;;;;;;;;;5.00;3.00;;;;;;;;5044792;28;46860;-75
2023/12/27 18:10:04;;;;;;;;;4.25;4.25;;;;;;;;5038663;28;45483;-74
2023/12/27 18:12:29;;;;;;;;;4.75;4.00;;;;;;;;5050438;28;44848;-74
2023/12/27 18:14:54;;;;;;;;;7.00;7.00;;;;;;;;5033559;28;45245;-74
2023/12/27 18:17:20;;;;;;;;;6.00;5.25;;;;;;;;5050422;28;46194;-75
2023/12/27 18:19:45;;;;;;;;;5.00;5.00;;;;;;;;5052791;28;45471;-74
2023/12/27 18:22:10;;;;;;;;;5.00;3.25;;;;;;;;5047107;28;45532;-74
2023/12/27 18:24:36;;;;;;;;;4.00;4.00;;;;;;;;5037949;28;45417;-74
2023/12/27 18:27:02;;;;;;;;;4.50;4.00;;;;;;;;5048356;28;45367;-74
2023/12/27 18:29:27;;;;;;;;;4.25;4.00;;;;;;;;5040380;28;45530;-73
2023/12/27 18:31:53;;;;;;;;;3.50;3.50;;;;;;;;5045839;28;45453;-72
2023/12/27 18:34:18;;;;;;;;;4.00;4.00;;;;;;;;5038914;28;45520;-73
2023/12/27 18:36:44;;;;;;;;;6.25;5.00;;;;;;;;5037576;28;45524;-74
2023/12/27 18:39:10;;;;;;;;;6.50;5.50;;;;;;;;5039952;28;45161;-75
2023/12/27 18:41:35;;;;;;;;;7.00;5.00;;;;;;;;5037410;28;44828;-75
2023/12/27 18:44:00;;;;;;;;;6.50;5.00;;;;;;;;5040791;28;45314;-75
2023/12/27 18:46:26;;;;;;;;;6.00;4.75;;;;;;;;5044704;28;46815;-74
2023/12/27 18:48:51;;;;;;;;;3.67;3.67;;;;;;;;5042633;28;45147;-74
2023/12/27 18:51:16;;;;;;;;;5.50;4.25;;;;;;;;5046054;28;45315;-73
2023/12/27 18:53:41;;;;;;;;;6.50;4.00;;;;;;;;5044137;28;45356;-74
2023/12/27 18:56:07;;;;;;;;;6.33;5.00;;;;;;;;5039681;28;47338;-74
2023/12/27 18:58:32;;;;;;;;;5.00;4.00;;;;;;;;5045212;28;45494;-75
2023/12/27 19:01:01;;;;;;;;;3.75;3.50;;;;;;;;5041775;28;45234;-75
2023/12/27 19:03:26;;;;;;;;;4.50;4.00;;;;;;;;5047020;28;45681;-75
2023/12/27 19:05:52;;;;;;;;;4.00;3.67;;;;;;;;5038466;28;45589;-75
2023/12/27 19:08:17;;;;;;;;;4.00;3.75;;;;;;;;5037687;28;45341;-76
2023/12/27 19:10:42;;;;;;;;;4.00;4.00;;;;;;;;5042181;28;45228;-75
2023/12/27 19:13:07;;;;;;;;;2.50;2.50;;;;;;;;5045891;28;45406;-74
2023/12/27 19:15:33;;;;;;;;;4.00;4.00;;;;;;;;5053748;28;46908;-75
2023/12/27 19:17:58;;;;;;;;;6.25;5.00;;;;;;;;5047148;28;45458;-75
2023/12/27 19:20:24;;;;;;;;;5.25;4.00;;;;;;;;5042392;28;45433;-75
2023/12/27 19:22:49;;;;;;;;;7.00;6.25;;;;;;;;5045934;28;45928;-76
2023/12/27 19:25:16;;;;;;;;;6.00;4.00;;;;;;;;5047992;28;45350;-77
2023/12/27 19:27:41;;;;;;;;;4.33;3.33;;;;;;;;5048360;28;45221;-75
2023/12/27 19:30:07;;;;;;;;;5.00;3.00;;;;;;;;5047321;28;45051;-75
2023/12/27 19:32:32;;;;;;;;;5.00;5.00;;;;;;;;5055484;28;46353;-75
2023/12/27 19:34:58;;;;;;;;;4.00;4.00;;;;;;;;5046865;28;45607;-75
2023/12/27 19:37:23;;;;;;;;;4.75;4.75;;;;;;;;5057345;28;45433;-76
2023/12/27 19:39:48;;;;;;;;;4.33;3.00;;;;;;;;5036304;28;45279;-74
2023/12/27 19:42:14;;;;;;;;;4.00;4.00;;;;;;;;5052839;28;45451;-75
2023/12/27 19:44:40;;;;;;;;;5.67;4.33;;;;;;;;5055486;28;45323;-74
2023/12/27 19:47:05;;;;;;;;;3.00;3.00;;;;;;;;5052598;28;45442;-75
2023/12/27 19:49:30;;;;;;;;;5.00;4.50;;;;;;;;5042180;28;44802;-75
2023/12/27 19:51:55;;;;;;;;;5.00;5.00;;;;;;;;5053429;28;45469;-74
2023/12/27 19:54:21;;;;;;;;;3.67;3.00;;;;;;;;5051838;28;46895;-75
2023/12/27 19:56:48;;;;;;;;;10.00;7.00;;;;;;;;5045192;28;45245;-75
2023/12/27 19:59:13;;;;;;;;;3.33;3.00;;;;;;;;5039612;28;45398;-75
2023/12/27 20:01:39;;;;;;;;;6.00;5.00;;;;;;;;5053314;28;45294;-74
2023/12/27 20:04:04;;;;;;;;;5.00;5.00;;;;;;;;5053395;28;46912;-74
2023/12/27 20:06:29;;;;;;;;;4.75;4.75;;;;;;;;5045894;28;45209;-77
2023/12/27 20:08:54;;;;;;;;;6.75;5.50;;;;;;;;5038053;28;45581;-79
2023/12/27 20:11:19;;;;;;;;;6.25;6.25;;;;;;;;5048158;28;45341;-77
2023/12/27 20:13:45;;;;;;;;;6.75;5.00;;;;;;;;5037162;28;45441;-77
2023/12/27 20:16:10;;;;;;;;;5.00;5.00;;;;;;;;5052973;28;45971;-75
2023/12/27 20:18:36;;;;;;;;;6.33;4.00;;;;;;;;5041610;28;45363;-76
2023/12/27 20:21:03;;;;;;;;;5.00;4.50;;;;;;;;5049571;28;46554;-77
2023/12/27 20:23:29;;;;;;;;;2.67;2.67;;;;;;;;5041759;28;45457;-77
2023/12/27 20:25:55;;;;;;;;;4.67;4.00;;;;;;;;5050332;28;45441;-76
2023/12/27 20:28:20;;;;;;;;;5.33;3.33;;;;;;;;5044735;28;45354;-75
2023/12/27 20:30:45;;;;;;;;;8.00;6.00;;;;;;;;5051374;28;45795;-75
2023/12/27 20:33:10;;;;;;;;;5.50;5.25;;;;;;;;5048371;28;46452;-75
2023/12/27 20:35:37;;;;;;;;;3.33;3.33;;;;;;;;5045740;28;45432;-75
2023/12/27 20:38:03;;;;;;;;;6.00;4.75;;;;;;;;5042075;28;45523;-75
2023/12/27 20:40:28;;;;;;;;;5.00;4.00;;;;;;;;5045419;28;45367;-76
2023/12/27 20:42:53;;;;;;;;;4.00;4.00;;;;;;;;5044053;28;45719;-76
2023/12/27 20:45:18;;;;;;;;;5.00;4.75;;;;;;;;5046442;28;45159;-75
2023/12/27 20:47:44;;;;;;;;;3.67;3.67;;;;;;;;5044006;28;45199;-76
2023/12/27 20:50:09;;;;;;;;;4.00;4.00;;;;;;;;5043223;28;45550;-75
2023/12/27 20:52:34;;;;;;;;;2.00;2.00;;;;;;;;5043814;28;46031;-75
2023/12/27 20:55:00;;;;;;;;;5.75;4.50;;;;;;;;5039815;28;45335;-76
2023/12/27 20:57:26;;;;;;;;;4.00;4.00;;;;;;;;5041437;28;45223;-76
2023/12/27 20:59:51;;;;;;;;;5.50;5.50;;;;;;;;5040358;28;45410;-76
2023/12/27 21:02:17;;;;;;;;;6.67;5.00;;;;;;;;5042311;28;46786;-76
2023/12/27 21:04:44;;;;;;;;;3.00;3.00;;;;;;;;5038291;28;45413;-76
2023/12/27 21:07:09;;;;;;;;;5.33;5.33;;;;;;;;5042522;28;45645;-76
2023/12/27 21:09:34;;;;;;;;;4.00;3.33;;;;;;;;5038401;28;45462;-76
2023/12/27 21:11:59;;;;;;;;;6.33;5.00;;;;;;;;5045031;28;45655;-76
2023/12/27 21:14:25;;;;;;;;;4.00;2.67;;;;;;;;5042393;28;45402;-76
2023/12/27 21:16:50;;;;;;;;;5.67;3.33;;;;;;;;5046370;28;45343;-76
2023/12/27 21:19:15;;;;;;;;;5.67;4.00;;;;;;;;5041632;28;46259;-76
2023/12/27 21:21:41;;;;;;;;;8.33;5.33;;;;;;;;5047152;28;45650;-76
2023/12/27 21:24:07;;;;;;;;;6.33;6.00;;;;;;;;5042526;28;45355;-76
2023/12/27 21:26:32;;;;;;;;;5.67;5.67;;;;;;;;5044787;28;45831;-76
2023/12/27 21:28:57;;;;;;;;;5.00;5.00;;;;;;;;5042634;28;45886;-76
2023/12/27 21:31:23;;;;;;;;;5.67;5.00;;;;;;;;5040910;28;47310;-75
2023/12/27 21:33:51;;;;;;;;;5.67;5.00;;;;;;;;5037982;28;45304;-75
2023/12/27 21:36:25;;;;;;;;;6.00;5.00;;;;;;;;5041715;28;44955;-75
2023/12/27 21:38:52;;;;;;;;;8.00;4.00;;;;;;;;5043634;28;45271;-76
2023/12/27 21:41:27;;;;;;;;;7.00;7.00;;;;;;;;5047430;28;45695;-85
2023/12/27 21:43:53;;;;;;;;;5.00;5.00;;;;;;;;5034079;28;45568;-73
2023/12/27 21:46:22;;;;;;;;;6.75;6.75;;;;;;;;5044560;28;45347;-74
2023/12/27 21:48:47;;;;;;;;;8.75;5.75;;;;;;;;5038888;28;45513;-75
2023/12/27 21:51:19;;;;;;;;;13.00;8.50;;;;;;;;5037123;28;46823;-74
2023/12/27 21:53:45;;;;;;;;;5.00;5.00;;;;;;;;5040918;28;45375;-73
2023/12/27 21:56:20;;;;;;;;;5.00;5.00;;;;;;;;5038843;28;45473;-72
2023/12/27 21:58:45;;;;;;;;;7.00;5.00;;;;;;;;5041353;28;45741;-74
2023/12/27 22:01:11;;;;;;;;;6.67;4.33;;;;;;;;5044937;28;47037;-75
2023/12/27 22:03:36;;;;;;;;;5.00;5.00;;;;;;;;5037625;28;45507;-76
2023/12/27 22:06:01;;;;;;;;;5.00;5.00;;;;;;;;5039795;28;45328;-75
2023/12/27 22:08:26;;;;;;;;;6.25;4.50;;;;;;;;5038835;28;45326;-76
2023/12/27 22:10:51;;;;;;;;;6.00;6.00;;;;;;;;5044478;28;47147;-76
2023/12/27 22:13:16;;;;;;;;;6.50;4.50;;;;;;;;5043345;28;45481;-76
2023/12/27 22:15:42;;;;;;;;;6.75;5.25;;;;;;;;5047062;28;45232;-76
2023/12/27 22:18:07;;;;;;;;;6.00;4.00;;;;;;;;5060200;28;45946;-76
2023/12/27 22:20:32;;;;;;;;;6.33;6.00;;;;;;;;5044553;28;45952;-75
2023/12/27 22:22:57;;;;;;;;;2.33;2.33;;;;;;;;5062071;28;45410;-76
2023/12/27 22:25:23;;;;;;;;;4.00;4.00;;;;;;;;5045005;28;45160;-76